Time;durP1;ratioP1;P1;durP2;ratioP2;P2;SDS_P1;SDS_P2;PMS_P1;PMS_P2;Temp;Humidity;BMP_temperature;BMP_pressure;BME280_temperature;BME280_humidity;BME280_pressure;Samples;Min_cycle;Max_cycle;Signal;HPM_P1;HPM_P2
2022/06/12 00:00:18;;;;;;;1.52;0.80;;;17.40;67.40;;;;;;5025638;28;20572;-81
2022/06/12 00:02:44;;;;;;;1.37;0.70;;;17.40;67.60;;;;;;5039647;28;20025;-81
2022/06/12 00:05:11;;;;;;;1.27;0.60;;;17.40;67.50;;;;;;5047674;28;20029;-81
2022/06/12 00:07:37;;;;;;;2.05;0.68;;;17.30;67.60;;;;;;5017295;28;20044;-81
2022/06/12 00:10:04;;;;;;;1.17;0.60;;;17.30;67.70;;;;;;5054192;28;20039;-81
2022/06/12 00:12:30;;;;;;;1.23;0.63;;;17.20;67.70;;;;;;5030263;28;20033;-81
2022/06/12 00:14:55;;;;;;;3.97;0.80;;;17.10;67.70;;;;;;5036167;28;20103;-81
2022/06/12 00:17:22;;;;;;;2.33;1.00;;;17.10;67.80;;;;;;5030845;28;20433;-81
2022/06/12 00:19:49;;;;;;;1.15;0.70;;;17.00;67.80;;;;;;5055164;28;20045;-81
2022/06/12 00:22:16;;;;;;;2.20;0.70;;;16.90;68.50;;;;;;5021034;28;20036;-81
2022/06/12 00:24:41;;;;;;;1.17;0.80;;;16.90;67.80;;;;;;5047845;28;20060;-81
2022/06/12 00:27:07;;;;;;;2.70;0.70;;;16.80;68.00;;;;;;5032895;28;20120;-81
2022/06/12 00:29:35;;;;;;;2.45;0.70;;;16.80;67.90;;;;;;5029790;28;20808;-81
2022/06/12 00:32:12;;;;;;;2.50;0.60;;;16.70;67.90;;;;;;5055813;28;20028;-81
2022/06/12 00:34:49;;;;;;;1.08;0.60;;;16.60;68.10;;;;;;5036455;28;20878;-81
2022/06/12 00:37:17;;;;;;;1.20;0.60;;;16.60;68.20;;;;;;5037554;28;20033;-81
2022/06/12 00:39:45;;;;;;;1.55;0.60;;;16.50;68.20;;;;;;5043694;28;20029;-81
2022/06/12 00:42:35;;;;;;;1.13;0.68;;;16.40;68.20;;;;;;5035115;28;20062;-81
2022/06/12 00:45:22;;;;;;;1.45;0.60;;;16.30;68.50;;;;;;5040967;28;20591;-81
2022/06/12 00:47:47;;;;;;;2.45;0.80;;;16.30;68.40;;;;;;5038100;28;20047;-81
2022/06/12 00:50:13;;;;;;;1.13;0.67;;;16.20;68.40;;;;;;5037765;28;20508;-81
2022/06/12 00:52:47;;;;;;;1.30;0.70;;;16.10;68.60;;;;;;5051520;28;20565;-81
2022/06/12 00:55:24;;;;;;;1.00;0.60;;;16.00;68.80;;;;;;5025702;28;20037;-81
2022/06/12 00:57:53;;;;;;;1.55;0.50;;;16.00;68.70;;;;;;5039376;28;20025;-81
2022/06/12 01:00:19;;;;;;;1.55;0.60;;;15.90;68.90;;;;;;5028500;28;20033;-80
2022/06/12 01:02:45;;;;;;;0.85;0.52;;;15.90;68.90;;;;;;5051245;28;20086;-81
2022/06/12 01:08:00;;;;;;;1.58;0.70;;;15.80;69.20;;;;;;5037554;28;20032;-81
2022/06/12 01:10:28;;;;;;;1.85;0.50;;;15.70;69.20;;;;;;5030488;28;20033;-81
2022/06/12 01:13:23;;;;;;;1.35;0.60;;;15.70;69.40;;;;;;5040586;28;20060;-81
2022/06/12 01:15:57;;;;;;;0.80;0.50;;;15.60;69.90;;;;;;5045690;28;20448;-81
2022/06/12 01:18:36;;;;;;;2.53;0.55;;;15.60;69.70;;;;;;5040636;28;20183;-81
2022/06/12 01:21:25;;;;;;;0.98;0.50;;;15.50;70.00;;;;;;5055377;28;20064;-81
2022/06/12 01:23:57;;;;;;;1.25;0.60;;;15.40;70.10;;;;;;5040257;28;20067;-81
2022/06/12 01:26:29;;;;;;;0.63;0.60;;;15.40;69.70;;;;;;5027983;28;20055;-81
2022/06/12 01:29:03;;;;;;;1.30;0.50;;;15.40;69.80;;;;;;5036202;28;20041;-81
2022/06/12 01:31:47;;;;;;;0.80;0.50;;;15.30;70.00;;;;;;5030664;28;20235;-80
2022/06/12 01:34:27;;;;;;;1.60;0.60;;;15.30;70.40;;;;;;5043938;28;20036;-81
2022/06/12 01:36:53;;;;;;;1.00;0.52;;;15.20;70.20;;;;;;5041895;28;20065;-81
2022/06/12 01:39:37;;;;;;;0.73;0.40;;;15.20;70.20;;;;;;5036050;28;20052;-81
2022/06/12 01:42:38;;;;;;;1.73;0.60;;;15.10;70.80;;;;;;5039673;28;20491;-81
2022/06/12 01:45:14;;;;;;;1.38;0.90;;;15.10;70.80;;;;;;5026477;28;20037;-81
2022/06/12 01:47:58;;;;;;;1.17;0.60;;;15.10;70.40;;;;;;5040031;28;20090;-81
2022/06/12 01:50:42;;;;;;;1.00;0.60;;;15.00;70.80;;;;;;5021248;28;20017;-81
2022/06/12 01:53:10;;;;;;;1.00;0.65;;;15.00;70.90;;;;;;5048949;28;20041;-81
2022/06/12 01:55:52;;;;;;;1.33;0.60;;;15.00;70.60;;;;;;5050478;28;20102;-81
2022/06/12 01:58:28;;;;;;;2.05;0.47;;;14.90;70.90;;;;;;5035722;28;20056;-81
2022/06/12 02:01:09;;;;;;;1.63;0.60;;;14.90;70.90;;;;;;5041837;28;20060;-81
2022/06/12 02:03:51;;;;;;;1.97;0.70;;;14.90;70.90;;;;;;5041678;28;20258;-81
2022/06/12 02:06:29;;;;;;;1.42;0.60;;;14.90;71.30;;;;;;5036261;28;20067;-81
2022/06/12 02:09:22;;;;;;;1.38;0.60;;;14.80;71.10;;;;;;5046033;28;20488;-81
2022/06/12 02:14:45;;;;;;;1.52;0.70;;;14.80;71.30;;;;;;5027119;28;20040;-80
2022/06/12 02:17:19;;;;;;;1.20;0.70;;;14.70;71.30;;;;;;5044862;28;20108;-80
2022/06/12 02:19:47;;;;;;;2.03;0.50;;;14.70;71.50;;;;;;5054779;28;20047;-80
2022/06/12 02:22:27;;;;;;;1.38;0.60;;;14.60;71.30;;;;;;5031799;28;20032;-80
2022/06/12 02:25:05;;;;;;;1.38;0.60;;;14.60;71.90;;;;;;5046469;28;20043;-80
2022/06/12 02:27:47;;;;;;;1.08;0.60;;;14.50;71.70;;;;;;5020198;28;25142;-80
2022/06/12 02:30:25;;;;;;;1.00;0.60;;;14.50;71.80;;;;;;5032239;28;20233;-80
2022/06/12 02:32:59;;;;;;;1.52;0.60;;;14.50;72.00;;;;;;5043344;28;20037;-80
2022/06/12 02:35:47;;;;;;;2.50;0.60;;;14.40;72.00;;;;;;5022851;28;20306;-80
2022/06/12 02:38:19;;;;;;;0.90;0.50;;;14.50;72.50;;;;;;5023186;28;20040;-80
2022/06/12 02:40:53;;;;;;;2.35;0.50;;;14.40;72.00;;;;;;5042265;28;20045;-80
2022/06/12 02:43:23;;;;;;;2.10;0.60;;;14.40;72.10;;;;;;5023687;28;20356;-80
2022/06/12 02:45:55;;;;;;;1.58;0.65;;;14.40;72.20;;;;;;5045405;28;20033;-80
2022/06/12 02:48:21;;;;;;;1.10;0.60;;;14.40;72.40;;;;;;5037230;28;20043;-80
2022/06/12 02:51:21;;;;;;;2.25;0.63;;;14.30;72.20;;;;;;5051414;28;20435;-80
2022/06/12 02:54:05;;;;;;;0.95;0.60;;;14.30;73.00;;;;;;5041867;28;20036;-80
2022/06/12 02:56:48;;;;;;;0.97;0.53;;;14.30;72.70;;;;;;5062507;28;20033;-80
2022/06/12 02:59:53;;;;;;;1.92;0.70;;;14.30;72.90;;;;;;5025109;28;20032;-80
2022/06/12 03:02:42;;;;;;;1.27;0.50;;;14.30;73.30;;;;;;5031933;28;20124;-80
2022/06/12 03:05:21;;;;;;;0.95;0.60;;;14.20;72.70;;;;;;5035896;28;20253;-80
2022/06/12 03:07:49;;;;;;;1.50;0.60;;;14.20;72.80;;;;;;5050649;28;20444;-80
2022/06/12 03:10:19;;;;;;;1.00;0.70;;;14.20;72.70;;;;;;5037901;28;20040;-80
2022/06/12 03:12:45;;;;;;;2.25;0.70;;;14.10;73.00;;;;;;5049314;28;20033;-80
2022/06/12 03:15:47;;;;;;;2.00;0.70;;;14.10;73.00;;;;;;5024943;28;20135;-80
2022/06/12 03:18:19;;;;;;;1.85;0.60;;;14.10;73.90;;;;;;5038503;28;20040;-80
2022/06/12 03:21:06;;;;;;;1.63;0.70;;;14.10;73.40;;;;;;5043976;28;20563;-80
2022/06/12 03:23:57;;;;;;;0.90;0.70;;;14.00;73.60;;;;;;5030269;28;20099;-80
2022/06/12 03:26:46;;;;;;;1.15;0.60;;;14.00;74.10;;;;;;5047679;28;20151;-80
2022/06/12 03:29:37;;;;;;;2.35;0.70;;;14.00;74.60;;;;;;5032987;28;20051;-80
2022/06/12 03:32:18;;;;;;;2.08;0.68;;;14.00;73.90;;;;;;5025668;28;20081;-80
2022/06/12 03:34:52;;;;;;;1.30;0.60;;;14.00;74.10;;;;;;5033238;28;20232;-81
2022/06/12 03:37:59;;;;;;;1.57;0.60;;;14.00;73.70;;;;;;5033865;28;20044;-80
2022/06/12 03:40:33;;;;;;;1.70;0.63;;;14.00;74.80;;;;;;5031618;28;20059;-80
2022/06/12 03:43:31;;;;;;;1.27;0.68;;;14.00;73.90;;;;;;5046477;28;20032;-80
2022/06/12 03:46:26;;;;;;;1.17;0.60;;;14.00;74.30;;;;;;5033384;28;20043;-80
2022/06/12 03:49:20;;;;;;;0.95;0.60;;;14.00;74.80;;;;;;5040878;28;20400;-80
2022/06/12 03:52:12;;;;;;;2.20;0.80;;;14.00;74.60;;;;;;5036990;28;20051;-80
2022/06/12 03:55:06;;;;;;;2.58;0.80;;;14.00;74.80;;;;;;5031599;28;20153;-80
2022/06/12 03:57:52;;;;;;;1.15;0.60;;;14.00;75.10;;;;;;5049955;28;20390;-80
2022/06/12 04:00:40;;;;;;;1.52;0.60;;;14.00;74.70;;;;;;5025405;28;20052;-80
2022/06/12 04:03:18;;;;;;;1.48;0.73;;;14.00;75.20;;;;;;5024219;28;20061;-80
2022/06/12 04:05:49;;;;;;;1.93;0.63;;;14.00;74.90;;;;;;5043139;28;20039;-80
2022/06/12 04:08:22;;;;;;;1.40;0.70;;;14.00;74.80;;;;;;5035761;28;20353;-81
2022/06/12 04:10:49;;;;;;;1.25;0.70;;;14.00;74.90;;;;;;5039855;28;20085;-80
2022/06/12 04:13:18;;;;;;;1.92;0.80;;;14.00;74.90;;;;;;5044020;28;20067;-80
2022/06/12 04:16:01;;;;;;;1.27;0.68;;;14.00;75.10;;;;;;5052124;28;20033;-81
2022/06/12 04:18:29;;;;;;;3.07;0.77;;;14.00;75.30;;;;;;5023553;28;20550;-81
2022/06/12 04:21:06;;;;;;;1.35;0.70;;;14.10;75.30;;;;;;5039661;28;20060;-80
2022/06/12 04:23:39;;;;;;;2.45;0.70;;;14.10;75.70;;;;;;5043990;28;20651;-81
2022/06/12 04:26:39;;;;;;;3.55;0.73;;;14.10;75.90;;;;;;5037099;28;20059;-80
2022/06/12 04:29:11;;;;;;;2.33;0.70;;;14.20;76.60;;;;;;5046877;28;20113;-80
2022/06/12 04:31:40;;;;;;;2.13;0.83;;;14.20;76.10;;;;;;5042782;28;20420;-80
2022/06/12 04:34:15;;;;;;;1.83;0.70;;;14.20;75.90;;;;;;5027203;28;20028;-80
2022/06/12 04:36:44;;;;;;;1.05;0.50;;;14.20;76.40;;;;;;5049165;28;20441;-80
2022/06/12 04:39:16;;;;;;;1.25;0.70;;;14.30;76.20;;;;;;5036606;28;20032;-81
2022/06/12 04:41:43;;;;;;;3.00;0.80;;;14.30;76.40;;;;;;5048245;28;20032;-80
2022/06/12 04:44:09;;;;;;;3.60;0.90;;;14.40;76.40;;;;;;5048304;28;20033;-81
2022/06/12 04:46:38;;;;;;;2.50;0.70;;;14.40;76.40;;;;;;5039154;28;20241;-81
2022/06/12 04:49:03;;;;;;;2.40;0.70;;;14.50;76.50;;;;;;5035870;28;20057;-81
2022/06/12 04:51:30;;;;;;;2.77;0.70;;;14.50;76.40;;;;;;5035228;28;20703;-80
2022/06/12 04:53:56;;;;;;;1.88;0.70;;;14.60;76.60;;;;;;5048323;28;20444;-81
2022/06/12 04:56:25;;;;;;;2.03;0.82;;;14.60;76.60;;;;;;5025286;28;20040;-80
2022/06/12 04:58:52;;;;;;;1.85;0.70;;;14.60;76.60;;;;;;5022614;28;20224;-81
2022/06/12 05:01:18;;;;;;;2.17;0.85;;;14.70;76.60;;;;;;5049890;28;20029;-81
2022/06/12 05:03:44;;;;;;;1.80;0.80;;;14.70;76.60;;;;;;5017248;28;20501;-80
2022/06/12 05:06:13;;;;;;;2.58;0.68;;;14.80;76.80;;;;;;5029097;28;20047;-81
2022/06/12 05:08:38;;;;;;;3.78;0.80;;;14.80;76.80;;;;;;5042732;28;20032;-80
2022/06/12 05:11:04;;;;;;;2.57;0.60;;;14.90;76.90;;;;;;5037731;28;20258;-80
2022/06/12 05:13:30;;;;;;;1.63;0.80;;;14.90;77.00;;;;;;5041346;28;20978;-81
2022/06/12 05:15:56;;;;;;;2.50;0.98;;;15.00;77.00;;;;;;5049896;28;20258;-80
2022/06/12 05:18:22;;;;;;;3.63;0.80;;;15.00;77.00;;;;;;5051361;28;20056;-81
2022/06/12 05:20:48;;;;;;;1.83;0.80;;;15.10;77.10;;;;;;5000679;28;20060;-80
2022/06/12 05:23:16;;;;;;;4.38;1.00;;;15.10;77.90;;;;;;5049593;28;20048;-81
2022/06/12 05:25:42;;;;;;;2.27;0.80;;;15.20;77.20;;;;;;5030967;28;20070;-80
2022/06/12 05:28:11;;;;;;;3.33;1.00;;;15.20;77.20;;;;;;5028157;28;20600;-80
2022/06/12 05:30:38;;;;;;;3.05;1.00;;;15.30;77.40;;;;;;5052108;28;20038;-81
2022/06/12 05:33:03;;;;;;;3.75;1.15;;;15.30;77.40;;;;;;5046761;28;20025;-81
2022/06/12 05:35:31;;;;;;;3.10;1.00;;;15.40;77.50;;;;;;5010992;28;20028;-79
2022/06/12 05:38:00;;;;;;;3.37;0.90;;;15.50;77.70;;;;;;5033845;28;20245;-80
2022/06/12 05:40:28;;;;;;;4.03;1.08;;;15.50;77.70;;;;;;5045912;28;20033;-81
2022/06/12 05:42:55;;;;;;;1.80;1.00;;;15.60;77.90;;;;;;5025081;28;20251;-80
2022/06/12 05:45:24;;;;;;;2.80;1.08;;;15.60;77.80;;;;;;5041678;28;20033;-79
2022/06/12 05:47:53;;;;;;;3.05;1.30;;;15.70;78.00;;;;;;5045390;28;20468;-80
2022/06/12 05:50:22;;;;;;;2.00;1.00;;;15.70;78.10;;;;;;5041323;28;20497;-80
2022/06/12 05:52:48;;;;;;;2.80;1.02;;;15.80;78.10;;;;;;5040214;28;20123;-79
2022/06/12 05:55:14;;;;;;;3.33;1.17;;;15.80;78.10;;;;;;5044164;28;20521;-79
2022/06/12 05:57:40;;;;;;;4.37;1.30;;;15.90;78.30;;;;;;5049315;28;20031;-79
2022/06/12 06:00:16;;;;;;;4.50;1.30;;;16.00;78.40;;;;;;5034866;28;21805;-78
2022/06/12 06:02:45;;;;;;;4.53;1.40;;;16.10;78.70;;;;;;5037389;28;20070;-80
2022/06/12 06:05:12;;;;;;;5.03;1.40;;;16.10;78.70;;;;;;5054489;28;20044;-79
2022/06/12 06:07:37;;;;;;;3.83;1.17;;;16.20;78.80;;;;;;5020284;28;20440;-81
2022/06/12 06:10:05;;;;;;;5.30;1.35;;;16.30;79.00;;;;;;5039521;28;20288;-81
2022/06/12 06:12:31;;;;;;;5.68;1.30;;;16.40;79.30;;;;;;5040756;28;20041;-81
2022/06/12 06:14:56;;;;;;;3.80;1.30;;;16.50;79.40;;;;;;5051500;28;20037;-80
2022/06/12 06:17:22;;;;;;;8.50;1.67;;;16.60;79.60;;;;;;5035108;28;20124;-79
2022/06/12 06:19:48;;;;;;;5.20;1.63;;;16.80;79.80;;;;;;5041252;28;20139;-82
2022/06/12 06:22:16;;;;;;;4.70;1.37;;;16.90;80.00;;;;;;5032979;28;20334;-79
2022/06/12 06:24:42;;;;;;;3.90;1.50;;;17.00;80.20;;;;;;5043320;28;20287;-79
2022/06/12 06:27:09;;;;;;;5.15;1.52;;;17.20;80.20;;;;;;5049429;28;20398;-80
2022/06/12 06:29:36;;;;;;;5.93;1.63;;;17.30;80.30;;;;;;5034744;28;20029;-79
2022/06/12 06:32:03;;;;;;;6.60;1.70;;;17.50;80.30;;;;;;5040428;28;20778;-80
2022/06/12 06:34:29;;;;;;;5.57;1.92;;;17.70;80.10;;;;;;5042465;28;20068;-79
2022/06/12 06:36:54;;;;;;;6.87;1.63;;;17.70;79.80;;;;;;5017077;28;20068;-79
2022/06/12 06:39:20;;;;;;;6.27;1.90;;;17.80;79.50;;;;;;5035602;28;20155;-80
2022/06/12 06:41:45;;;;;;;4.82;1.75;;;17.90;79.30;;;;;;5044448;28;20036;-79
2022/06/12 06:46:56;;;;;;;6.35;1.80;;;18.00;78.80;;;;;;5039667;28;20045;-81
2022/06/12 06:49:23;;;;;;;8.38;1.95;;;18.10;78.80;;;;;;5047533;28;20037;-81
2022/06/12 06:51:49;;;;;;;6.65;1.80;;;18.10;78.80;;;;;;5024455;28;20032;-81
2022/06/12 06:54:16;;;;;;;4.30;1.73;;;18.10;79.00;;;;;;5040712;28;20048;-80
2022/06/12 06:56:42;;;;;;;6.32;1.67;;;18.20;79.00;;;;;;5035945;28;20036;-79
2022/06/12 06:59:08;;;;;;;5.40;1.50;;;18.30;79.10;;;;;;5047473;28;20150;-81
2022/06/12 07:01:34;;;;;;;5.70;1.60;;;18.30;79.20;;;;;;5047006;28;20229;-79
2022/06/12 07:04:00;;;;;;;6.55;1.60;;;18.40;79.20;;;;;;5040870;28;20033;-79
2022/06/12 07:06:27;;;;;;;3.65;1.55;;;18.50;79.30;;;;;;5054119;28;20033;-81
2022/06/12 07:08:54;;;;;;;7.63;1.60;;;18.60;79.40;;;;;;5032866;28;20068;-80
2022/06/12 07:11:20;;;;;;;5.43;1.70;;;18.60;79.40;;;;;;5047182;28;20098;-79
2022/06/12 07:13:45;;;;;;;5.97;1.90;;;18.70;79.50;;;;;;5045691;28;20473;-81
2022/06/12 07:16:11;;;;;;;5.13;1.75;;;18.80;79.40;;;;;;5043447;28;20055;-81
2022/06/12 07:18:37;;;;;;;6.95;1.80;;;18.90;79.50;;;;;;5035214;28;20408;-80
2022/06/12 07:21:03;;;;;;;4.60;1.57;;;19.00;79.60;;;;;;5056214;28;20103;-80
2022/06/12 07:23:31;;;;;;;5.15;2.00;;;19.20;79.80;;;;;;5048744;28;20433;-79
2022/06/12 07:26:03;;;;;;;5.70;1.63;;;19.30;79.80;;;;;;5029499;28;20596;-80
2022/06/12 07:28:29;;;;;;;7.57;1.83;;;19.40;79.50;;;;;;5022138;28;20733;-79
2022/06/12 07:30:55;;;;;;;6.05;1.85;;;19.60;79.80;;;;;;5039135;28;20037;-81
2022/06/12 07:33:22;;;;;;;4.03;1.67;;;19.70;79.60;;;;;;5035053;28;20548;-80
2022/06/12 07:35:48;;;;;;;4.35;1.50;;;19.80;79.60;;;;;;5056267;28;20382;-79
2022/06/12 07:38:17;;;;;;;5.15;1.70;;;20.00;79.90;;;;;;5053031;28;20682;-80
2022/06/12 07:40:46;;;;;;;5.20;1.60;;;20.10;80.20;;;;;;5033281;28;20477;-80
2022/06/12 07:43:12;;;;;;;7.70;1.98;;;20.30;81.00;;;;;;5028126;28;20115;-80
2022/06/12 07:45:41;;;;;;;4.57;1.63;;;20.60;82.30;;;;;;5049643;28;20162;-79
2022/06/12 07:48:07;;;;;;;5.85;1.50;;;21.00;83.20;;;;;;5041022;28;20064;-80
2022/06/12 07:50:33;;;;;;;5.93;1.70;;;21.40;83.90;;;;;;5037943;28;20036;-80
2022/06/12 07:52:59;;;;;;;3.33;1.50;;;21.90;84.50;;;;;;5051231;28;20040;-79
2022/06/12 07:55:26;;;;;;;5.78;1.63;;;22.40;84.10;;;;;;5026355;28;20037;-80
2022/06/12 07:57:52;;;;;;;4.38;1.70;;;22.80;83.90;;;;;;5048506;28;20028;-81
2022/06/12 08:00:18;;;;;;;4.00;1.70;;;23.30;83.60;;;;;;5031825;28;20036;-79
2022/06/12 08:02:45;;;;;;;3.85;1.50;;;23.80;83.20;;;;;;5033929;28;20029;-76
2022/06/12 08:05:12;;;;;;;5.20;1.47;;;24.30;83.00;;;;;;5040483;28;20033;-77
2022/06/12 08:07:37;;;;;;;5.03;1.50;;;24.80;82.20;;;;;;5054102;28;20140;-77
2022/06/12 08:10:04;;;;;;;3.85;1.50;;;25.30;81.70;;;;;;5035896;28;20194;-77
2022/06/12 08:12:32;;;;;;;3.20;1.60;;;25.80;80.80;;;;;;5036093;28;20226;-78
2022/06/12 08:14:58;;;;;;;4.47;1.27;;;26.20;80.30;;;;;;5040914;28;20393;-77
2022/06/12 08:17:24;;;;;;;4.53;1.42;;;26.60;79.30;;;;;;5031396;28;20036;-78
2022/06/12 08:22:34;;;;;;;3.83;1.50;;;27.40;78.30;;;;;;5044895;28;20354;-77
2022/06/12 08:24:59;;;;;;;3.25;1.33;;;27.90;78.00;;;;;;5037728;28;20123;-78
2022/06/12 08:27:25;;;;;;;5.50;1.40;;;28.20;77.20;;;;;;5020621;28;20250;-76
2022/06/12 08:29:51;;;;;;;4.17;1.37;;;28.60;76.00;;;;;;5036858;28;20040;-77
2022/06/12 08:32:20;;;;;;;3.00;1.23;;;28.90;74.40;;;;;;5024314;28;20702;-77
2022/06/12 08:34:56;;;;;;;4.05;1.30;;;29.20;72.80;;;;;;5046226;28;20108;-77
2022/06/12 08:37:35;;;;;;;4.10;1.50;;;29.50;69.60;;;;;;5032607;28;20424;-77
2022/06/12 08:40:02;;;;;;;3.47;1.30;;;29.80;68.40;;;;;;5042456;28;20454;-77
2022/06/12 08:42:44;;;;;;;4.13;1.33;;;30.00;71.90;;;;;;5013919;28;20614;-77
2022/06/12 08:45:21;;;;;;;3.03;1.30;;;30.30;66.90;;;;;;5044475;28;20033;-77
2022/06/12 08:48:16;;;;;;;3.10;1.25;;;30.60;68.70;;;;;;5028484;28;20040;-76
2022/06/12 08:50:46;;;;;;;4.88;1.80;;;30.70;63.50;;;;;;5035393;28;20119;-77
2022/06/12 08:53:14;;;;;;;2.75;1.40;;;30.80;65.00;;;;;;5034762;28;20068;-77
2022/06/12 08:55:46;;;;;;;4.57;1.30;;;31.00;67.10;;;;;;5051476;28;20489;-76
2022/06/12 08:58:25;;;;;;;3.87;1.63;;;31.10;64.80;;;;;;5024224;28;20028;-77
2022/06/12 09:00:51;;;;;;;3.35;1.17;;;31.30;62.70;;;;;;5050684;28;20024;-79
2022/06/12 09:03:20;;;;;;;2.83;1.30;;;31.50;65.70;;;;;;5027231;28;20493;-77
2022/06/12 09:06:07;;;;;;;3.85;1.48;;;31.60;64.10;;;;;;5057212;28;20495;-77
2022/06/12 09:09:02;;;;;;;3.97;1.47;;;31.90;59.90;;;;;;5041544;28;20123;-77
2022/06/12 09:11:47;;;;;;;2.80;1.35;;;32.10;58.80;;;;;;5045599;28;20032;-77
2022/06/12 09:14:31;;;;;;;2.95;1.38;;;32.40;59.50;;;;;;5029250;28;20094;-77
2022/06/12 09:17:09;;;;;;;4.40;1.63;;;32.60;59.10;;;;;;5053214;28;20032;-77
2022/06/12 09:19:40;;;;;;;3.63;1.52;;;32.80;62.80;;;;;;5040953;28;20757;-78
2022/06/12 09:22:37;;;;;;;3.63;1.90;;;33.10;59.60;;;;;;5040071;28;20037;-77
2022/06/12 09:25:42;;;;;;;3.28;1.70;;;33.30;57.00;;;;;;5019399;28;20771;-77
2022/06/12 09:28:38;;;;;;;3.42;2.03;;;33.60;57.50;;;;;;5025727;28;20025;-77
2022/06/12 09:31:22;;;;;;;3.03;1.73;;;33.80;55.40;;;;;;5011458;28;20088;-77
2022/06/12 09:34:16;;;;;;;2.53;1.55;;;33.90;55.40;;;;;;5041626;28;20643;-78
2022/06/12 09:36:44;;;;;;;3.17;1.67;;;33.90;54.70;;;;;;5045918;28;20677;-77
2022/06/12 09:39:30;;;;;;;3.42;1.65;;;34.10;58.20;;;;;;5035276;28;20033;-78
2022/06/12 09:42:25;;;;;;;2.28;1.30;;;34.20;54.40;;;;;;5043782;28;20170;-78
2022/06/12 09:45:15;;;;;;;2.28;1.40;;;34.20;51.60;;;;;;5030831;28;20581;-77
2022/06/12 09:47:56;;;;;;;3.40;1.63;;;34.40;52.80;;;;;;5042187;28;20058;-79
2022/06/12 09:50:52;;;;;;;3.60;1.70;;;34.50;52.00;;;;;;5032224;28;20250;-77
2022/06/12 09:53:33;;;;;;;3.42;1.60;;;34.40;50.40;;;;;;5031769;28;20620;-77
2022/06/12 09:56:07;;;;;;;3.00;1.55;;;34.30;49.80;;;;;;5041051;28;20095;-77
2022/06/12 09:58:56;;;;;;;2.78;1.52;;;34.10;49.30;;;;;;5014298;28;20086;-77
2022/06/12 10:01:34;;;;;;;2.85;1.52;;;33.80;50.70;;;;;;5030165;28;20191;-77
2022/06/12 10:04:06;;;;;;;2.20;1.30;;;33.80;49.90;;;;;;5034143;28;20036;-76
2022/06/12 10:06:55;;;;;;;2.72;1.40;;;33.80;52.00;;;;;;5048656;28;20032;-78
2022/06/12 10:09:30;;;;;;;2.95;1.33;;;33.90;49.30;;;;;;5030228;28;20604;-77
2022/06/12 10:12:03;;;;;;;4.38;1.85;;;34.10;50.80;;;;;;5039065;28;20044;-77
2022/06/12 10:14:33;;;;;;;2.60;1.45;;;34.20;50.60;;;;;;5018901;28;20693;-77
2022/06/12 10:17:41;;;;;;;3.33;1.63;;;34.30;52.40;;;;;;5047460;28;20017;-77
2022/06/12 10:20:13;;;;;;;3.33;1.67;;;34.40;48.10;;;;;;5034449;28;20111;-77
2022/06/12 10:22:43;;;;;;;2.47;1.42;;;34.40;49.00;;;;;;5042068;28;20522;-76
2022/06/12 10:25:27;;;;;;;2.63;1.50;;;34.20;48.30;;;;;;5027589;28;20059;-76
2022/06/12 10:27:59;;;;;;;3.15;1.30;;;33.80;45.30;;;;;;5030232;28;20142;-78
2022/06/12 10:30:29;;;;;;;3.73;1.30;;;33.30;46.30;;;;;;5023932;28;20052;-77
2022/06/12 10:32:57;;;;;;;2.90;1.50;;;32.90;46.60;;;;;;5041942;28;20420;-77
2022/06/12 10:35:25;;;;;;;2.80;1.50;;;32.70;48.40;;;;;;5034054;28;20205;-77
2022/06/12 10:37:51;;;;;;;3.30;1.48;;;32.60;49.20;;;;;;5038571;28;20578;-76
2022/06/12 10:40:26;;;;;;;3.00;1.55;;;32.70;50.60;;;;;;5048734;28;20037;-76
2022/06/12 10:42:54;;;;;;;2.97;1.50;;;32.90;48.70;;;;;;5040932;28;20320;-78
2022/06/12 10:45:35;;;;;;;3.75;1.77;;;33.10;51.10;;;;;;5025367;28;20043;-78
2022/06/12 10:48:18;;;;;;;3.15;1.45;;;33.40;48.70;;;;;;5042698;28;20127;-77
2022/06/12 10:50:56;;;;;;;3.35;1.70;;;33.70;50.70;;;;;;5033910;28;20297;-76
2022/06/12 10:53:25;;;;;;;2.67;1.27;;;33.90;46.30;;;;;;5046285;28;20040;-78
2022/06/12 10:55:59;;;;;;;2.70;1.57;;;33.90;49.00;;;;;;5023061;28;20940;-77
2022/06/12 10:58:27;;;;;;;2.35;1.35;;;34.00;47.30;;;;;;5032776;28;20040;-79
2022/06/12 11:00:58;;;;;;;2.28;1.27;;;34.10;48.40;;;;;;5029164;28;20040;-78
2022/06/12 11:03:47;;;;;;;2.47;1.58;;;34.10;47.20;;;;;;5047516;28;20024;-78
2022/06/12 11:06:21;;;;;;;2.88;1.33;;;34.10;44.10;;;;;;5049237;28;20033;-77
2022/06/12 11:09:11;;;;;;;2.80;1.20;;;33.90;44.60;;;;;;5031507;28;20062;-77
2022/06/12 11:12:07;;;;;;;3.00;1.45;;;33.80;43.10;;;;;;5029264;28;20033;-77
2022/06/12 11:15:07;;;;;;;2.50;1.40;;;33.60;43.20;;;;;;5010196;28;20041;-77
2022/06/12 11:17:48;;;;;;;3.08;1.20;;;33.60;43.50;;;;;;5011683;28;20136;-77
2022/06/12 11:20:35;;;;;;;3.53;1.60;;;33.60;47.80;;;;;;5024370;28;20060;-77
2022/06/12 11:23:09;;;;;;;3.07;1.50;;;33.60;44.00;;;;;;5049934;28;20435;-77
2022/06/12 11:25:45;;;;;;;3.05;1.50;;;33.50;45.80;;;;;;5020391;28;20167;-77
2022/06/12 11:28:45;;;;;;;2.08;1.30;;;33.50;46.40;;;;;;5043277;28;20473;-77
2022/06/12 11:31:35;;;;;;;2.05;1.40;;;33.50;43.80;;;;;;5020444;28;20381;-78
2022/06/12 11:34:25;;;;;;;3.58;1.58;;;33.50;45.70;;;;;;5051155;28;20041;-77
2022/06/12 11:37:00;;;;;;;2.73;1.17;;;33.40;43.50;;;;;;5041115;28;20061;-79
2022/06/12 11:40:03;;;;;;;2.90;1.33;;;33.20;44.60;;;;;;5036505;28;20100;-77
2022/06/12 11:42:48;;;;;;;3.22;1.10;;;32.80;42.60;;;;;;5047352;28;20247;-78
2022/06/12 11:45:20;;;;;;;1.98;1.10;;;32.70;43.60;;;;;;5040859;28;20515;-77
2022/06/12 11:48:16;;;;;;;2.45;1.23;;;32.50;46.00;;;;;;5021835;28;20024;-78
2022/06/12 11:50:49;;;;;;;2.30;1.20;;;32.50;42.20;;;;;;5033205;28;20492;-77
2022/06/12 11:53:22;;;;;;;2.78;1.30;;;32.50;44.90;;;;;;5040555;28;20087;-78
2022/06/12 11:55:57;;;;;;;3.22;1.13;;;32.40;43.50;;;;;;5030172;28;20267;-79
2022/06/12 11:58:41;;;;;;;2.28;1.30;;;32.30;43.80;;;;;;5046340;28;20481;-79
2022/06/12 12:01:35;;;;;;;3.95;1.17;;;32.30;44.70;;;;;;5039904;28;20111;-77
2022/06/12 12:04:41;;;;;;;2.10;1.00;;;32.30;44.00;;;;;;5022706;28;20136;-77
2022/06/12 12:07:09;;;;;;;1.50;1.10;;;32.50;43.90;;;;;;5046294;28;20488;-78
2022/06/12 12:10:03;;;;;;;3.13;1.30;;;32.60;45.40;;;;;;5038801;28;20395;-78
2022/06/12 12:12:34;;;;;;;3.42;1.30;;;32.60;43.70;;;;;;5036366;28;20032;-77
2022/06/12 12:15:05;;;;;;;2.80;1.45;;;32.60;45.30;;;;;;5052702;28;20037;-78
2022/06/12 12:17:40;;;;;;;3.83;1.40;;;32.60;44.80;;;;;;5016766;28;20072;-77
2022/06/12 12:20:36;;;;;;;6.53;1.50;;;32.60;43.80;;;;;;5042641;28;20051;-77
2022/06/12 12:23:24;;;;;;;3.03;1.40;;;32.70;42.70;;;;;;5042498;28;20035;-78
2022/06/12 12:26:02;;;;;;;2.85;1.55;;;32.80;44.00;;;;;;5039079;28;20093;-78
2022/06/12 12:28:46;;;;;;;2.05;1.23;;;33.10;45.30;;;;;;5045102;28;20028;-80
2022/06/12 12:31:15;;;;;;;2.90;1.23;;;33.30;44.60;;;;;;5042422;28;20442;-78
2022/06/12 12:33:43;;;;;;;2.63;1.50;;;33.50;46.70;;;;;;5025057;28;20040;-79
2022/06/12 12:41:48;;;;;;;3.42;1.77;;;34.00;43.20;;;;;;5036596;28;20341;-80
2022/06/12 12:44:33;;;;;;;2.63;1.43;;;34.00;42.40;;;;;;5047697;28;20090;-79
2022/06/12 12:46:59;;;;;;;2.80;1.45;;;34.10;43.60;;;;;;5035632;28;20341;-78
2022/06/12 12:49:34;;;;;;;2.50;1.13;;;34.10;43.40;;;;;;5029723;28;20039;-78
2022/06/12 12:52:10;;;;;;;4.30;1.33;;;34.00;40.80;;;;;;5049046;28;20181;-79
2022/06/12 12:54:52;;;;;;;2.53;1.20;;;33.80;40.40;;;;;;5052077;28;20092;-78
2022/06/12 12:57:39;;;;;;;2.70;1.20;;;33.50;40.00;;;;;;5038085;28;20037;-79
2022/06/12 13:00:16;;;;;;;2.75;1.45;;;33.20;41.20;;;;;;5044933;28;20356;-80
2022/06/12 13:02:59;;;;;;;3.22;1.33;;;33.10;41.70;;;;;;5041279;28;20496;-79
2022/06/12 13:05:34;;;;;;;3.45;1.60;;;33.00;41.20;;;;;;5057616;28;20040;-79
2022/06/12 13:08:23;;;;;;;1.98;1.20;;;33.10;43.70;;;;;;5043156;28;20029;-81
2022/06/12 13:11:20;;;;;;;3.70;1.20;;;33.30;41.80;;;;;;5049620;28;20041;-80
2022/06/12 13:14:19;;;;;;;2.53;1.27;;;33.60;42.40;;;;;;5033890;28;20097;-80
2022/06/12 13:17:08;;;;;;;2.75;1.33;;;33.90;42.70;;;;;;5043973;28;20313;-79
2022/06/12 13:20:06;;;;;;;2.17;1.60;;;34.20;42.20;;;;;;5021657;28;20055;-78
2022/06/12 13:22:49;;;;;;;2.78;1.55;;;34.50;42.10;;;;;;5052636;28;20059;-80
2022/06/12 13:25:31;;;;;;;1.60;1.17;;;34.80;41.40;;;;;;5061128;28;20037;-79
2022/06/12 13:27:59;;;;;;;2.63;1.30;;;34.80;39.90;;;;;;5034997;28;21127;-81
2022/06/12 13:30:39;;;;;;;2.60;1.50;;;34.80;41.80;;;;;;5051654;28;20020;-80
2022/06/12 13:33:07;;;;;;;2.55;1.20;;;34.80;41.80;;;;;;5046338;28;20222;-80
2022/06/12 13:35:43;;;;;;;2.72;1.10;;;34.90;41.60;;;;;;5026718;28;20059;-79
2022/06/12 13:38:18;;;;;;;3.43;1.20;;;34.80;38.30;;;;;;5038174;28;20579;-79
2022/06/12 13:41:06;;;;;;;3.00;1.35;;;34.50;37.80;;;;;;5048175;28;20032;-80
2022/06/12 13:43:42;;;;;;;1.38;0.88;;;34.30;37.80;;;;;;5041309;28;20400;-80
2022/06/12 13:46:30;;;;;;;1.52;1.00;;;34.10;38.90;;;;;;5049440;28;20301;-80